< < Back
Terminal Aerodrome Forecast


Current Version              Previous Versions:   1  2  3  4  5  6  7  8  9  

Terminal Aerodrome Forecast

716
FTUS42 KJAX 242320
TAFJAX
TAF
KJAX 242320Z 2500/2524 13008KT P6SM FEW080 BKN250
     FM250200 VRB03KT P6SM SCT250
     FM251500 10010KT P6SM FEW050 FEW250=

Latest METAR

350
SAUS80 KWBC 242300
MTRJAX
METAR KJAX 242256Z 13010KT 10SM FEW075 BKN250 27/14 A3010 RMK AO2 SLP194
T02720144


USA.gov is the U.S. government's official web portal to all federal, state and local government web resources and services.